sensor_id;sensor_type;location;lat;lon;timestamp;temperature;humidity
16134;DHT22;8172;45.018;5.972;2023-04-25T00:01:35;9.30;60.80
16134;DHT22;8172;45.018;5.972;2023-04-25T00:06:44;9.20;61.00
16134;DHT22;8172;45.018;5.972;2023-04-25T00:11:53;9.20;61.10
16134;DHT22;8172;45.018;5.972;2023-04-25T00:17:02;9.30;61.30
16134;DHT22;8172;45.018;5.972;2023-04-25T00:22:10;9.30;61.40
16134;DHT22;8172;45.018;5.972;2023-04-25T00:27:19;9.20;61.50
16134;DHT22;8172;45.018;5.972;2023-04-25T00:32:32;9.30;61.70
16134;DHT22;8172;45.018;5.972;2023-04-25T00:37:43;9.30;61.80
16134;DHT22;8172;45.018;5.972;2023-04-25T00:42:52;9.30;61.90
16134;DHT22;8172;45.018;5.972;2023-04-25T00:48:02;9.30;62.00
16134;DHT22;8172;45.018;5.972;2023-04-25T00:53:14;9.30;62.20
16134;DHT22;8172;45.018;5.972;2023-04-25T00:58:22;9.30;62.30
16134;DHT22;8172;45.018;5.972;2023-04-25T01:03:32;9.20;62.30
16134;DHT22;8172;45.018;5.972;2023-04-25T01:08:42;9.10;62.60
16134;DHT22;8172;45.018;5.972;2023-04-25T01:13:51;9.10;62.90
16134;DHT22;8172;45.018;5.972;2023-04-25T01:18:58;9.10;63.00
16134;DHT22;8172;45.018;5.972;2023-04-25T01:24:07;9.10;63.10
16134;DHT22;8172;45.018;5.972;2023-04-25T01:29:17;9.10;63.40
16134;DHT22;8172;45.018;5.972;2023-04-25T01:34:25;9.00;63.60
16134;DHT22;8172;45.018;5.972;2023-04-25T01:39:38;9.00;63.70
16134;DHT22;8172;45.018;5.972;2023-04-25T01:44:45;9.00;63.90
16134;DHT22;8172;45.018;5.972;2023-04-25T01:49:53;8.90;64.20
16134;DHT22;8172;45.018;5.972;2023-04-25T01:55:02;8.70;64.20
16134;DHT22;8172;45.018;5.972;2023-04-25T02:00:13;8.70;64.40
16134;DHT22;8172;45.018;5.972;2023-04-25T02:05:20;8.80;64.60
16134;DHT22;8172;45.018;5.972;2023-04-25T02:10:29;8.90;64.50
16134;DHT22;8172;45.018;5.972;2023-04-25T02:15:38;9.00;64.50
16134;DHT22;8172;45.018;5.972;2023-04-25T02:20:48;8.90;64.50
16134;DHT22;8172;45.018;5.972;2023-04-25T02:25:56;9.00;64.60
16134;DHT22;8172;45.018;5.972;2023-04-25T02:31:05;9.00;64.60
16134;DHT22;8172;45.018;5.972;2023-04-25T02:36:14;8.90;64.70
16134;DHT22;8172;45.018;5.972;2023-04-25T02:41:21;8.90;64.70
16134;DHT22;8172;45.018;5.972;2023-04-25T02:46:29;8.90;64.80
16134;DHT22;8172;45.018;5.972;2023-04-25T02:51:39;8.90;64.80
16134;DHT22;8172;45.018;5.972;2023-04-25T02:56:47;8.90;64.70
16134;DHT22;8172;45.018;5.972;2023-04-25T03:01:57;8.90;64.70
16134;DHT22;8172;45.018;5.972;2023-04-25T03:07:07;8.90;64.80
16134;DHT22;8172;45.018;5.972;2023-04-25T03:12:18;8.90;64.90
16134;DHT22;8172;45.018;5.972;2023-04-25T03:17:26;8.90;64.90
16134;DHT22;8172;45.018;5.972;2023-04-25T03:22:37;8.90;64.90
16134;DHT22;8172;45.018;5.972;2023-04-25T03:27:47;8.90;64.90
16134;DHT22;8172;45.018;5.972;2023-04-25T03:32:55;8.90;64.80
16134;DHT22;8172;45.018;5.972;2023-04-25T03:38:03;8.90;64.60
16134;DHT22;8172;45.018;5.972;2023-04-25T03:43:12;8.90;64.50
16134;DHT22;8172;45.018;5.972;2023-04-25T03:48:24;8.90;64.50
16134;DHT22;8172;45.018;5.972;2023-04-25T03:53:33;8.80;64.50
16134;DHT22;8172;45.018;5.972;2023-04-25T03:58:42;8.80;64.40
16134;DHT22;8172;45.018;5.972;2023-04-25T04:03:50;8.80;64.30
16134;DHT22;8172;45.018;5.972;2023-04-25T04:09:00;8.70;64.20
16134;DHT22;8172;45.018;5.972;2023-04-25T04:14:09;8.70;64.30
16134;DHT22;8172;45.018;5.972;2023-04-25T04:19:19;8.70;64.20
16134;DHT22;8172;45.018;5.972;2023-04-25T04:24:29;8.70;64.40
16134;DHT22;8172;45.018;5.972;2023-04-25T04:29:42;8.70;64.60
16134;DHT22;8172;45.018;5.972;2023-04-25T04:34:55;8.70;64.60
16134;DHT22;8172;45.018;5.972;2023-04-25T04:40:05;8.70;64.50
16134;DHT22;8172;45.018;5.972;2023-04-25T04:45:15;8.60;65.00
16134;DHT22;8172;45.018;5.972;2023-04-25T04:50:26;8.60;65.10
16134;DHT22;8172;45.018;5.972;2023-04-25T04:55:35;8.60;65.30
16134;DHT22;8172;45.018;5.972;2023-04-25T05:00:45;8.70;65.30
16134;DHT22;8172;45.018;5.972;2023-04-25T05:05:55;8.70;65.30
16134;DHT22;8172;45.018;5.972;2023-04-25T05:11:02;8.70;65.30
16134;DHT22;8172;45.018;5.972;2023-04-25T05:16:13;8.70;65.10
16134;DHT22;8172;45.018;5.972;2023-04-25T05:21:25;8.70;64.90
16134;DHT22;8172;45.018;5.972;2023-04-25T05:26:36;8.70;64.90
16134;DHT22;8172;45.018;5.972;2023-04-25T05:31:46;8.70;64.90
16134;DHT22;8172;45.018;5.972;2023-04-25T05:36:59;8.70;64.80
16134;DHT22;8172;45.018;5.972;2023-04-25T05:42:10;8.80;64.90
16134;DHT22;8172;45.018;5.972;2023-04-25T05:47:19;8.90;64.60
16134;DHT22;8172;45.018;5.972;2023-04-25T05:52:29;8.90;64.70
16134;DHT22;8172;45.018;5.972;2023-04-25T05:57:39;8.90;65.20
16134;DHT22;8172;45.018;5.972;2023-04-25T06:02:49;8.80;65.70
16134;DHT22;8172;45.018;5.972;2023-04-25T06:08:02;8.70;65.50
16134;DHT22;8172;45.018;5.972;2023-04-25T06:13:12;8.60;65.80
16134;DHT22;8172;45.018;5.972;2023-04-25T06:18:20;8.60;65.70
16134;DHT22;8172;45.018;5.972;2023-04-25T06:23:29;8.60;65.60
16134;DHT22;8172;45.018;5.972;2023-04-25T06:28:40;8.70;66.10
16134;DHT22;8172;45.018;5.972;2023-04-25T06:33:50;8.80;65.70
16134;DHT22;8172;45.018;5.972;2023-04-25T06:39:00;8.90;66.00
16134;DHT22;8172;45.018;5.972;2023-04-25T06:44:10;9.00;66.00
16134;DHT22;8172;45.018;5.972;2023-04-25T06:49:20;9.10;65.60
16134;DHT22;8172;45.018;5.972;2023-04-25T06:54:28;9.10;65.20
16134;DHT22;8172;45.018;5.972;2023-04-25T06:59:38;9.20;65.30
16134;DHT22;8172;45.018;5.972;2023-04-25T07:04:46;9.30;64.90
16134;DHT22;8172;45.018;5.972;2023-04-25T07:09:56;9.30;64.50
16134;DHT22;8172;45.018;5.972;2023-04-25T07:15:05;9.20;63.30
16134;DHT22;8172;45.018;5.972;2023-04-25T07:20:17;9.30;63.30
16134;DHT22;8172;45.018;5.972;2023-04-25T07:25:25;9.20;63.20
16134;DHT22;8172;45.018;5.972;2023-04-25T07:30:35;9.20;63.00
16134;DHT22;8172;45.018;5.972;2023-04-25T07:35:43;9.30;62.70
16134;DHT22;8172;45.018;5.972;2023-04-25T07:40:51;9.40;62.80
16134;DHT22;8172;45.018;5.972;2023-04-25T07:45:59;9.50;62.20
16134;DHT22;8172;45.018;5.972;2023-04-25T07:51:08;9.60;61.30
16134;DHT22;8172;45.018;5.972;2023-04-25T07:56:18;9.60;61.40
16134;DHT22;8172;45.018;5.972;2023-04-25T08:01:26;9.70;61.10
16134;DHT22;8172;45.018;5.972;2023-04-25T08:06:36;9.80;60.50
16134;DHT22;8172;45.018;5.972;2023-04-25T08:11:46;9.90;60.10
16134;DHT22;8172;45.018;5.972;2023-04-25T08:16:55;9.90;60.20
16134;DHT22;8172;45.018;5.972;2023-04-25T08:22:04;9.90;60.00
16134;DHT22;8172;45.018;5.972;2023-04-25T08:27:13;10.00;60.40
16134;DHT22;8172;45.018;5.972;2023-04-25T08:32:22;10.10;60.60
16134;DHT22;8172;45.018;5.972;2023-04-25T08:37:34;10.40;60.40
16134;DHT22;8172;45.018;5.972;2023-04-25T08:42:44;10.60;59.40
16134;DHT22;8172;45.018;5.972;2023-04-25T08:47:54;10.70;58.80
16134;DHT22;8172;45.018;5.972;2023-04-25T08:53:04;10.80;58.40
16134;DHT22;8172;45.018;5.972;2023-04-25T08:58:15;10.90;58.40
16134;DHT22;8172;45.018;5.972;2023-04-25T09:03:24;11.00;57.30
16134;DHT22;8172;45.018;5.972;2023-04-25T09:08:36;11.10;57.70
16134;DHT22;8172;45.018;5.972;2023-04-25T09:13:46;11.20;56.90
16134;DHT22;8172;45.018;5.972;2023-04-25T09:18:59;11.30;56.90
16134;DHT22;8172;45.018;5.972;2023-04-25T09:24:10;11.30;55.40
16134;DHT22;8172;45.018;5.972;2023-04-25T09:29:18;11.30;56.50
16134;DHT22;8172;45.018;5.972;2023-04-25T09:34:28;11.20;56.40
16134;DHT22;8172;45.018;5.972;2023-04-25T09:39:38;11.20;56.80
16134;DHT22;8172;45.018;5.972;2023-04-25T09:44:48;11.30;57.00
16134;DHT22;8172;45.018;5.972;2023-04-25T09:49:57;11.40;56.00
16134;DHT22;8172;45.018;5.972;2023-04-25T09:55:07;11.50;54.60
16134;DHT22;8172;45.018;5.972;2023-04-25T10:00:16;11.50;54.40
16134;DHT22;8172;45.018;5.972;2023-04-25T10:05:25;11.60;54.30
16134;DHT22;8172;45.018;5.972;2023-04-25T10:10:35;11.50;53.70
16134;DHT22;8172;45.018;5.972;2023-04-25T10:15:48;11.50;53.80
16134;DHT22;8172;45.018;5.972;2023-04-25T10:21:02;11.40;53.40
16134;DHT22;8172;45.018;5.972;2023-04-25T10:26:13;11.40;54.00
16134;DHT22;8172;45.018;5.972;2023-04-25T10:31:21;11.40;53.50
16134;DHT22;8172;45.018;5.972;2023-04-25T10:36:31;11.40;54.20
16134;DHT22;8172;45.018;5.972;2023-04-25T10:46:50;11.60;54.70
16134;DHT22;8172;45.018;5.972;2023-04-25T11:02:26;11.80;55.00
16134;DHT22;8172;45.018;5.972;2023-04-25T11:07:39;11.90;52.30
16134;DHT22;8172;45.018;5.972;2023-04-25T11:12:52;11.90;53.60
16134;DHT22;8172;45.018;5.972;2023-04-25T11:18:02;11.80;50.60
16134;DHT22;8172;45.018;5.972;2023-04-25T11:23:10;11.60;51.50
16134;DHT22;8172;45.018;5.972;2023-04-25T11:28:20;11.60;53.20
16134;DHT22;8172;45.018;5.972;2023-04-25T11:33:30;11.60;51.80
16134;DHT22;8172;45.018;5.972;2023-04-25T11:38:38;11.70;52.60
16134;DHT22;8172;45.018;5.972;2023-04-25T11:43:46;11.80;52.50
16134;DHT22;8172;45.018;5.972;2023-04-25T11:48:57;11.90;51.50
16134;DHT22;8172;45.018;5.972;2023-04-25T11:54:06;11.90;50.20
16134;DHT22;8172;45.018;5.972;2023-04-25T11:59:14;11.90;52.20
16134;DHT22;8172;45.018;5.972;2023-04-25T12:04:24;12.00;51.80
16134;DHT22;8172;45.018;5.972;2023-04-25T12:09:34;12.00;51.80
16134;DHT22;8172;45.018;5.972;2023-04-25T12:14:45;12.00;50.40
16134;DHT22;8172;45.018;5.972;2023-04-25T12:19:53;12.00;51.30
16134;DHT22;8172;45.018;5.972;2023-04-25T12:25:02;12.10;50.20
16134;DHT22;8172;45.018;5.972;2023-04-25T12:30:11;12.10;51.30
16134;DHT22;8172;45.018;5.972;2023-04-25T12:35:19;12.10;50.10
16134;DHT22;8172;45.018;5.972;2023-04-25T12:40:27;12.10;50.70
16134;DHT22;8172;45.018;5.972;2023-04-25T12:45:37;12.20;51.00
16134;DHT22;8172;45.018;5.972;2023-04-25T12:50:46;12.30;50.30
16134;DHT22;8172;45.018;5.972;2023-04-25T12:55:55;12.30;50.10
16134;DHT22;8172;45.018;5.972;2023-04-25T13:01:04;12.40;51.10
16134;DHT22;8172;45.018;5.972;2023-04-25T13:06:12;12.30;49.60
16134;DHT22;8172;45.018;5.972;2023-04-25T13:11:21;12.20;49.30
16134;DHT22;8172;45.018;5.972;2023-04-25T13:16:29;12.10;49.40
16134;DHT22;8172;45.018;5.972;2023-04-25T13:21:37;12.10;49.30
16134;DHT22;8172;45.018;5.972;2023-04-25T13:26:45;12.10;50.20
16134;DHT22;8172;45.018;5.972;2023-04-25T13:31:53;12.10;48.10
16134;DHT22;8172;45.018;5.972;2023-04-25T13:37:02;12.00;49.40
16134;DHT22;8172;45.018;5.972;2023-04-25T13:42:11;12.10;48.70
16134;DHT22;8172;45.018;5.972;2023-04-25T13:47:22;12.20;49.90
16134;DHT22;8172;45.018;5.972;2023-04-25T13:52:31;12.40;48.30
16134;DHT22;8172;45.018;5.972;2023-04-25T13:57:40;12.40;49.00
16134;DHT22;8172;45.018;5.972;2023-04-25T14:02:50;12.50;48.60
16134;DHT22;8172;45.018;5.972;2023-04-25T14:07:59;12.50;49.00
16134;DHT22;8172;45.018;5.972;2023-04-25T14:13:09;12.60;47.90
16134;DHT22;8172;45.018;5.972;2023-04-25T14:18:18;12.60;48.80
16134;DHT22;8172;45.018;5.972;2023-04-25T14:23:27;12.60;47.90
16134;DHT22;8172;45.018;5.972;2023-04-25T14:28:35;12.70;49.00
16134;DHT22;8172;45.018;5.972;2023-04-25T14:33:43;12.90;48.40
16134;DHT22;8172;45.018;5.972;2023-04-25T14:38:52;13.00;48.20
16134;DHT22;8172;45.018;5.972;2023-04-25T14:44:02;13.20;48.30
16134;DHT22;8172;45.018;5.972;2023-04-25T14:49:09;13.10;48.30
16134;DHT22;8172;45.018;5.972;2023-04-25T14:54:17;13.30;48.80
16134;DHT22;8172;45.018;5.972;2023-04-25T14:59:25;13.40;46.90
16134;DHT22;8172;45.018;5.972;2023-04-25T15:04:35;13.50;48.00
16134;DHT22;8172;45.018;5.972;2023-04-25T15:09:44;13.50;48.00
16134;DHT22;8172;45.018;5.972;2023-04-25T15:14:54;13.60;47.20
16134;DHT22;8172;45.018;5.972;2023-04-25T15:20:05;13.70;46.30
16134;DHT22;8172;45.018;5.972;2023-04-25T15:25:15;13.60;46.40
16134;DHT22;8172;45.018;5.972;2023-04-25T15:30:25;13.70;46.80
16134;DHT22;8172;45.018;5.972;2023-04-25T15:35:33;13.80;45.80
16134;DHT22;8172;45.018;5.972;2023-04-25T15:40:42;13.60;45.10
16134;DHT22;8172;45.018;5.972;2023-04-25T15:45:50;13.40;44.80
16134;DHT22;8172;45.018;5.972;2023-04-25T15:50:59;13.10;44.60
16134;DHT22;8172;45.018;5.972;2023-04-25T15:56:08;12.80;44.80
16134;DHT22;8172;45.018;5.972;2023-04-25T16:01:16;12.50;45.20
16134;DHT22;8172;45.018;5.972;2023-04-25T16:06:25;12.00;44.80
16134;DHT22;8172;45.018;5.972;2023-04-25T16:11:33;11.70;45.90
16134;DHT22;8172;45.018;5.972;2023-04-25T16:16:43;11.50;46.80
16134;DHT22;8172;45.018;5.972;2023-04-25T16:21:52;11.30;46.60
16134;DHT22;8172;45.018;5.972;2023-04-25T16:27:01;11.10;46.70
16134;DHT22;8172;45.018;5.972;2023-04-25T16:32:12;11.00;47.20
16134;DHT22;8172;45.018;5.972;2023-04-25T16:37:24;10.90;47.50
16134;DHT22;8172;45.018;5.972;2023-04-25T16:42:33;10.80;47.90
16134;DHT22;8172;45.018;5.972;2023-04-25T16:47:42;10.80;48.20
16134;DHT22;8172;45.018;5.972;2023-04-25T16:52:51;10.80;48.10
16134;DHT22;8172;45.018;5.972;2023-04-25T16:58:00;10.70;46.90
16134;DHT22;8172;45.018;5.972;2023-04-25T17:03:08;10.60;47.40
16134;DHT22;8172;45.018;5.972;2023-04-25T17:08:16;10.60;47.50
16134;DHT22;8172;45.018;5.972;2023-04-25T17:13:25;10.70;47.50
16134;DHT22;8172;45.018;5.972;2023-04-25T17:18:35;10.70;46.80
16134;DHT22;8172;45.018;5.972;2023-04-25T17:23:44;10.70;47.60
16134;DHT22;8172;45.018;5.972;2023-04-25T17:28:53;10.80;47.80
16134;DHT22;8172;45.018;5.972;2023-04-25T17:34:01;10.80;47.80
16134;DHT22;8172;45.018;5.972;2023-04-25T17:39:12;10.80;47.80
16134;DHT22;8172;45.018;5.972;2023-04-25T17:44:23;10.70;47.90
16134;DHT22;8172;45.018;5.972;2023-04-25T17:49:32;10.70;48.30
16134;DHT22;8172;45.018;5.972;2023-04-25T17:54:40;10.70;48.30
16134;DHT22;8172;45.018;5.972;2023-04-25T17:59:50;10.70;48.60
16134;DHT22;8172;45.018;5.972;2023-04-25T18:04:59;10.60;48.50
16134;DHT22;8172;45.018;5.972;2023-04-25T18:10:10;10.60;48.60
16134;DHT22;8172;45.018;5.972;2023-04-25T18:15:18;10.60;49.00
16134;DHT22;8172;45.018;5.972;2023-04-25T18:20:27;10.50;49.10
16134;DHT22;8172;45.018;5.972;2023-04-25T18:25:35;10.50;49.30
16134;DHT22;8172;45.018;5.972;2023-04-25T18:30:45;10.40;49.40
16134;DHT22;8172;45.018;5.972;2023-04-25T18:35:54;10.30;49.60
16134;DHT22;8172;45.018;5.972;2023-04-25T18:41:05;10.20;49.60
16134;DHT22;8172;45.018;5.972;2023-04-25T18:46:14;10.10;49.50
16134;DHT22;8172;45.018;5.972;2023-04-25T18:51:24;10.00;49.60
16134;DHT22;8172;45.018;5.972;2023-04-25T18:56:36;10.00;49.80
16134;DHT22;8172;45.018;5.972;2023-04-25T19:01:49;9.90;49.80
16134;DHT22;8172;45.018;5.972;2023-04-25T19:06:58;9.80;49.80
16134;DHT22;8172;45.018;5.972;2023-04-25T19:12:07;9.70;50.00
16134;DHT22;8172;45.018;5.972;2023-04-25T19:17:15;9.60;50.10
16134;DHT22;8172;45.018;5.972;2023-04-25T19:22:24;9.60;50.20
16134;DHT22;8172;45.018;5.972;2023-04-25T19:27:32;9.50;50.20
16134;DHT22;8172;45.018;5.972;2023-04-25T19:32:40;9.40;50.30
16134;DHT22;8172;45.018;5.972;2023-04-25T19:37:49;9.40;50.30
16134;DHT22;8172;45.018;5.972;2023-04-25T19:42:57;9.30;50.30
16134;DHT22;8172;45.018;5.972;2023-04-25T19:48:05;9.30;50.30
16134;DHT22;8172;45.018;5.972;2023-04-25T19:53:15;9.30;50.50
16134;DHT22;8172;45.018;5.972;2023-04-25T19:58:24;9.20;50.50
16134;DHT22;8172;45.018;5.972;2023-04-25T20:03:32;9.10;50.80
16134;DHT22;8172;45.018;5.972;2023-04-25T20:08:40;9.10;50.80
16134;DHT22;8172;45.018;5.972;2023-04-25T20:13:49;9.00;50.90
16134;DHT22;8172;45.018;5.972;2023-04-25T20:18:58;9.00;51.10
16134;DHT22;8172;45.018;5.972;2023-04-25T20:24:07;9.00;51.20
16134;DHT22;8172;45.018;5.972;2023-04-25T20:29:18;8.90;51.20
16134;DHT22;8172;45.018;5.972;2023-04-25T20:34:26;8.90;51.40
16134;DHT22;8172;45.018;5.972;2023-04-25T20:39:35;8.80;51.50
16134;DHT22;8172;45.018;5.972;2023-04-25T20:44:44;8.80;51.60
16134;DHT22;8172;45.018;5.972;2023-04-25T20:49:52;8.80;51.70
16134;DHT22;8172;45.018;5.972;2023-04-25T20:55:01;8.70;51.80
16134;DHT22;8172;45.018;5.972;2023-04-25T21:00:10;8.70;51.90
16134;DHT22;8172;45.018;5.972;2023-04-25T21:05:21;8.70;52.20
16134;DHT22;8172;45.018;5.972;2023-04-25T21:10:29;8.60;52.30
16134;DHT22;8172;45.018;5.972;2023-04-25T21:15:37;8.60;52.40
16134;DHT22;8172;45.018;5.972;2023-04-25T21:20:46;8.50;52.60
16134;DHT22;8172;45.018;5.972;2023-04-25T21:25:54;8.50;52.70
16134;DHT22;8172;45.018;5.972;2023-04-25T21:31:03;8.50;52.80
16134;DHT22;8172;45.018;5.972;2023-04-25T21:36:11;8.40;53.00
16134;DHT22;8172;45.018;5.972;2023-04-25T21:41:19;8.40;53.20
16134;DHT22;8172;45.018;5.972;2023-04-25T21:46:28;8.40;53.20
16134;DHT22;8172;45.018;5.972;2023-04-25T21:51:36;8.30;53.30
16134;DHT22;8172;45.018;5.972;2023-04-25T21:56:44;8.20;53.40
16134;DHT22;8172;45.018;5.972;2023-04-25T22:01:52;8.20;53.60
16134;DHT22;8172;45.018;5.972;2023-04-25T22:07:04;8.20;53.70
16134;DHT22;8172;45.018;5.972;2023-04-25T22:12:16;8.10;53.80
16134;DHT22;8172;45.018;5.972;2023-04-25T22:17:24;8.10;53.70
16134;DHT22;8172;45.018;5.972;2023-04-25T22:22:34;8.10;53.80
16134;DHT22;8172;45.018;5.972;2023-04-25T22:27:43;8.00;53.80
16134;DHT22;8172;45.018;5.972;2023-04-25T22:32:52;8.00;53.80
16134;DHT22;8172;45.018;5.972;2023-04-25T22:38:00;8.00;53.90
16134;DHT22;8172;45.018;5.972;2023-04-25T22:43:09;7.90;54.00
16134;DHT22;8172;45.018;5.972;2023-04-25T22:48:18;7.90;54.30
16134;DHT22;8172;45.018;5.972;2023-04-25T22:53:26;7.90;54.50
16134;DHT22;8172;45.018;5.972;2023-04-25T22:58:35;7.90;54.60
16134;DHT22;8172;45.018;5.972;2023-04-25T23:03:44;7.80;54.70
16134;DHT22;8172;45.018;5.972;2023-04-25T23:08:51;7.80;54.70
16134;DHT22;8172;45.018;5.972;2023-04-25T23:14:00;7.80;54.70
16134;DHT22;8172;45.018;5.972;2023-04-25T23:19:10;7.70;54.80
16134;DHT22;8172;45.018;5.972;2023-04-25T23:24:18;7.70;55.00
16134;DHT22;8172;45.018;5.972;2023-04-25T23:29:27;7.70;55.10
16134;DHT22;8172;45.018;5.972;2023-04-25T23:34:35;7.60;55.20
16134;DHT22;8172;45.018;5.972;2023-04-25T23:39:46;7.60;55.40
16134;DHT22;8172;45.018;5.972;2023-04-25T23:44:55;7.60;55.50
16134;DHT22;8172;45.018;5.972;2023-04-25T23:50:03;7.50;55.50
16134;DHT22;8172;45.018;5.972;2023-04-25T23:55:12;7.50;55.60
